Adolph, MN

11:34 AM CST on March 06, 2015 (GMT -0600)
Hermantown - Loren | Change Station
CLOSE
Current Station
Personal Weather Station
Location: Duluth, MN
Elevation: 1410 ft
Nearby Weather Stations

Elev 1410 ft 46.86 °N, 92.22 °W | Updated 2 minutes ago

Partly Cloudy
Partly Cloudy
26.3 °F
Feels Like 14 °F
N
17.0
Wind Variable Wind from WSW

Today
High -- | Low -- °F
--% Chance of Precip.
Yesterday
High -- | Low -- °F
Precip. -- in
6:39 AM 6:01 PM
Full, 99% visible
Pressure 30.02 in
Visibility 10.0 miles
Clouds Few 7000 ft
Windchill 14 °F
Dew Point 10 °F
Humidity 50%
Rainfall in
Snow Depth Not available.
UV 4 out of 12
Pollen .10 out of 12
Air Quality Not available.
Flu Activity Not available.
METAR KDLH 061655Z 27015KT 10SM FEW070 M05/M12 A2993 RMK AO2 SLP165 T10501122

More Conditions Fewer Conditions

Pressure 30.02 in
Visibility 10.0 miles
Clouds Few 7000 ft
Windchill 14 °F
Dew Point 10 °F
Humidity 50%
Rainfall in
Snow Depth Not available.
UV 4 out of 12
Pollen .10 out of 12
Air Quality Not available.
Flu Activity Not available.
METAR KDLH 061655Z 27015KT 10SM FEW070 M05/M12 A2993 RMK AO2 SLP165 T10501122

More Conditions Fewer Conditions

10-Day Weather Forecast

Almanac

Astronomy

Mar. 06, 2015 Rise Set
Actual Time
Civil Twilight
Nautical Twilight
Astronomical Twilight
Moon
Length of Visible Light
Length of Day
Tomorrow will be .
, % of the Moon is Illuminated

Today's Extremes

State Highs State Lows

Community

WunderPhotos

Upload Photos

1,803,345 photos uploaded!

WunderBlogs® & News

Nearby

Air Quality

  Air Quality AQ Index Pollutant
Not available.

Snow Depth

Station Depth Elevation

Earthquake Activity

City Distance Mag. Time & Date
Minimum magnitude displayed is 2.5.

Coastal Water Temperatures

Place Temperature

Nearby Weather Stations